Time;durP1;ratioP1;P1;durP2;ratioP2;P2;SDS_P1;SDS_P2;PMS_P1;PMS_P2;Temp;Humidity;BMP_temperature;BMP_pressure;BME280_temperature;BME280_humidity;BME280_pressure;Samples;Min_cycle;Max_cycle;Signal;HPM_P1;HPM_P2
2022/11/13 00:01:23;;;;;;;9.75;8.18;;;7.20;99.90;;;;;;5131608;28;20209;-91
2022/11/13 00:03:53;;;;;;;9.52;8.07;;;7.20;99.90;;;;;;5131649;28;20209;-92
2022/11/13 00:06:22;;;;;;;10.65;8.90;;;7.20;99.90;;;;;;5131802;28;20207;-92
2022/11/13 00:08:53;;;;;;;12.35;7.60;;;7.20;99.90;;;;;;5131462;28;20221;-92
2022/11/13 00:11:22;;;;;;;13.13;9.38;;;7.20;99.90;;;;;;5137727;28;20263;-91
2022/11/13 00:13:51;;;;;;;8.75;7.85;;;7.20;99.90;;;;;;5138554;28;20230;-91
2022/11/13 00:16:20;;;;;;;11.02;8.25;;;7.10;99.90;;;;;;5138408;27;20207;-91
2022/11/13 00:18:49;;;;;;;8.60;7.70;;;7.20;99.90;;;;;;5136100;27;20207;-91
2022/11/13 00:21:21;;;;;;;11.90;8.82;;;7.10;99.90;;;;;;5135058;27;20280;-93
2022/11/13 00:23:50;;;;;;;8.82;7.78;;;7.10;99.90;;;;;;5135333;27;20207;-91
2022/11/13 00:26:20;;;;;;;10.80;8.75;;;7.10;99.90;;;;;;5134791;27;20214;-92
2022/11/13 00:28:53;;;;;;;12.23;9.07;;;7.10;99.90;;;;;;5134720;27;20206;-92
2022/11/13 00:31:21;;;;;;;9.75;8.60;;;7.10;99.90;;;;;;5134882;27;20210;-92
2022/11/13 00:33:50;;;;;;;9.43;8.40;;;7.10;99.90;;;;;;5134739;27;20203;-92
2022/11/13 00:36:39;;;;;;;10.02;9.02;;;7.10;99.90;;;;;;5134732;27;20203;-91
2022/11/13 00:39:08;;;;;;;11.57;8.50;;;7.10;99.90;;;;;;5134729;27;20207;-92
2022/11/13 00:41:37;;;;;;;11.07;8.77;;;7.10;99.90;;;;;;5134635;27;20223;-91
2022/11/13 00:44:05;;;;;;;9.73;8.75;;;7.10;99.90;;;;;;5134469;27;20209;-92
2022/11/13 00:46:34;;;;;;;10.35;9.32;;;7.10;99.90;;;;;;5134870;27;20213;-92
2022/11/13 00:49:03;;;;;;;13.85;10.55;;;7.10;99.90;;;;;;5134869;27;20294;-92
2022/11/13 00:51:31;;;;;;;13.57;10.65;;;7.20;99.90;;;;;;5134524;27;20310;-92
2022/11/13 00:54:02;;;;;;;12.48;9.25;;;7.20;99.90;;;;;;5134981;27;20310;-92
2022/11/13 00:56:30;;;;;;;17.20;10.90;;;7.20;99.90;;;;;;5134780;27;20207;-91
2022/11/13 00:58:58;;;;;;;13.23;10.07;;;7.20;99.90;;;;;;5134038;27;20222;-92
2022/11/13 01:01:26;;;;;;;11.98;9.77;;;7.20;99.90;;;;;;5134717;27;20214;-92
2022/11/13 01:03:55;;;;;;;12.20;10.25;;;7.20;99.90;;;;;;5134413;27;20465;-92
2022/11/13 01:06:25;;;;;;;16.90;10.60;;;7.20;99.90;;;;;;5134262;27;20211;-92
2022/11/13 01:08:55;;;;;;;16.10;12.40;;;7.20;99.90;;;;;;5134229;27;20291;-91
2022/11/13 01:11:27;;;;;;;16.35;11.68;;;7.20;99.90;;;;;;5133719;27;20202;-92
2022/11/13 01:13:56;;;;;;;14.82;12.93;;;7.20;99.90;;;;;;5133606;27;20207;-91
2022/11/13 01:16:26;;;;;;;16.58;12.55;;;7.20;99.90;;;;;;5134480;27;20214;-92
2022/11/13 01:18:55;;;;;;;15.48;13.20;;;7.20;99.90;;;;;;5134128;27;20209;-92
2022/11/13 01:21:26;;;;;;;16.58;12.77;;;7.20;99.90;;;;;;5133780;27;20207;-92
2022/11/13 01:23:55;;;;;;;13.38;12.02;;;7.20;99.90;;;;;;5133993;27;20206;-92
2022/11/13 01:26:27;;;;;;;12.45;11.18;;;7.20;99.90;;;;;;5133333;27;20221;-92
2022/11/13 01:28:57;;;;;;;14.65;12.15;;;7.20;99.90;;;;;;5133892;27;20212;-92
2022/11/13 01:31:29;;;;;;;15.73;11.25;;;7.10;99.90;;;;;;5133324;27;20222;-91
2022/11/13 01:33:57;;;;;;;12.45;11.18;;;7.20;99.90;;;;;;5133985;27;20217;-94
2022/11/13 01:36:28;;;;;;;13.13;11.82;;;7.20;99.90;;;;;;5134333;27;20209;-94
2022/11/13 01:38:57;;;;;;;23.30;12.25;;;7.20;99.90;;;;;;5134062;27;20199;-94
2022/11/13 01:41:29;;;;;;;11.43;10.25;;;7.20;99.90;;;;;;5134258;27;20211;-94
2022/11/13 01:43:58;;;;;;;11.88;10.68;;;7.20;99.90;;;;;;5134172;27;20207;-94
2022/11/13 01:46:29;;;;;;;12.10;10.35;;;7.20;99.90;;;;;;5133822;27;20207;-93
2022/11/13 01:49:04;;;;;;;12.70;9.85;;;7.10;99.90;;;;;;5134264;27;20211;-94
2022/11/13 01:51:34;;;;;;;10.10;9.13;;;7.10;99.90;;;;;;5133556;27;20242;-93
2022/11/13 01:54:05;;;;;;;11.80;10.13;;;7.00;99.90;;;;;;5136381;27;20211;-93
2022/11/13 01:56:35;;;;;;;9.00;7.70;;;7.00;99.90;;;;;;5136047;27;20203;-94
2022/11/13 01:59:09;;;;;;;12.63;8.90;;;6.90;99.90;;;;;;5135814;27;20272;-92
2022/11/13 02:01:37;;;;;;;8.75;7.57;;;6.80;99.90;;;;;;5136183;27;20215;-91
2022/11/13 02:04:06;;;;;;;10.02;7.75;;;6.70;99.90;;;;;;5135560;27;20263;-94
2022/11/13 02:06:40;;;;;;;18.48;7.65;;;6.70;99.90;;;;;;5135951;27;20294;-91
2022/11/13 02:09:10;;;;;;;11.13;7.38;;;6.60;99.90;;;;;;5135634;27;20199;-91
2022/11/13 02:11:40;;;;;;;11.60;8.63;;;6.60;99.90;;;;;;5135641;27;20234;-94
2022/11/13 02:14:09;;;;;;;8.52;7.45;;;6.50;99.90;;;;;;5135899;27;20201;-92
2022/11/13 02:16:40;;;;;;;10.63;8.77;;;6.50;99.90;;;;;;5136027;27;20214;-92
2022/11/13 02:19:14;;;;;;;7.53;6.82;;;6.50;99.90;;;;;;5142086;27;20214;-92
2022/11/13 02:21:49;;;;;;;10.93;8.25;;;6.40;99.90;;;;;;5143179;27;20224;-93
2022/11/13 02:24:32;;;;;;;9.27;7.70;;;6.40;99.90;;;;;;5137839;27;20213;-94
2022/11/13 02:27:08;;;;;;;8.88;7.20;;;6.40;99.90;;;;;;5137874;27;20207;-92
2022/11/13 02:29:37;;;;;;;9.75;8.40;;;6.30;99.90;;;;;;5138385;27;20258;-92
2022/11/13 02:32:05;;;;;;;11.18;8.82;;;6.30;99.90;;;;;;5137623;27;20223;-93
2022/11/13 02:34:34;;;;;;;10.82;8.88;;;6.30;99.90;;;;;;5140596;27;20209;-93
2022/11/13 02:37:02;;;;;;;10.73;8.80;;;6.30;99.90;;;;;;5134726;27;20209;-92
2022/11/13 02:39:32;;;;;;;10.52;9.15;;;6.30;99.90;;;;;;5134723;27;20209;-92
2022/11/13 02:42:00;;;;;;;8.35;7.53;;;6.30;99.90;;;;;;5134473;27;20226;-92
2022/11/13 02:44:28;;;;;;;8.27;7.47;;;6.30;99.90;;;;;;5134691;27;20203;-92
2022/11/13 02:46:56;;;;;;;9.10;8.20;;;6.30;99.90;;;;;;5134937;27;20209;-94
2022/11/13 02:49:25;;;;;;;9.30;8.05;;;6.30;99.90;;;;;;5135945;27;20203;-92
2022/11/13 02:51:53;;;;;;;13.80;9.65;;;6.30;99.90;;;;;;5136301;27;20227;-94
2022/11/13 02:54:21;;;;;;;11.82;8.75;;;6.30;99.90;;;;;;5136818;27;20207;-91
2022/11/13 02:56:51;;;;;;;9.73;8.73;;;6.30;99.90;;;;;;5140074;27;20205;-93
2022/11/13 02:59:19;;;;;;;10.07;9.07;;;6.40;99.90;;;;;;5134495;27;20207;-94
2022/11/13 03:01:48;;;;;;;9.85;8.70;;;6.30;99.90;;;;;;5134481;27;20227;-94
2022/11/13 03:04:16;;;;;;;11.65;9.75;;;6.30;99.90;;;;;;5134215;27;20282;-92
2022/11/13 03:06:45;;;;;;;11.48;10.20;;;6.30;99.90;;;;;;5134108;27;20207;-93
2022/11/13 03:09:14;;;;;;;10.85;9.85;;;6.30;99.90;;;;;;5116020;27;20254;-90
2022/11/13 03:11:44;;;;;;;16.55;11.15;;;6.30;99.90;;;;;;5134156;27;20231;-90
2022/11/13 03:14:13;;;;;;;12.95;11.65;;;6.20;99.90;;;;;;5133855;27;20202;-90
2022/11/13 03:16:42;;;;;;;14.20;12.35;;;6.20;99.90;;;;;;5133933;27;20202;-91
2022/11/13 03:19:10;;;;;;;16.90;15.10;;;6.10;99.90;;;;;;5133846;27;20202;-91
2022/11/13 03:21:38;;;;;;;17.95;14.43;;;6.10;99.90;;;;;;5133853;27;20225;-91
2022/11/13 03:24:06;;;;;;;18.08;15.38;;;6.10;99.90;;;;;;5134206;27;20207;-91
2022/11/13 03:26:35;;;;;;;16.80;14.68;;;6.10;99.90;;;;;;5133290;27;20203;-91
2022/11/13 03:29:03;;;;;;;21.73;18.90;;;6.10;99.90;;;;;;5133740;27;20210;-92
2022/11/13 03:31:33;;;;;;;22.75;20.13;;;6.10;99.90;;;;;;5133372;28;20227;-91
2022/11/13 03:34:01;;;;;;;23.00;18.30;;;6.10;99.90;;;;;;5133524;28;20210;-91
2022/11/13 03:36:30;;;;;;;25.85;19.55;;;6.20;99.90;;;;;;5133513;28;20290;-93
2022/11/13 03:38:58;;;;;;;20.88;18.83;;;6.10;99.90;;;;;;5133707;28;20207;-92
2022/11/13 03:41:27;;;;;;;19.83;17.92;;;6.20;99.90;;;;;;5133648;28;20207;-91
2022/11/13 03:43:55;;;;;;;27.50;19.13;;;6.10;99.90;;;;;;5133556;28;20207;-91
2022/11/13 03:46:23;;;;;;;24.50;20.85;;;6.10;99.90;;;;;;5133623;28;20206;-91
2022/11/13 03:48:53;;;;;;;22.25;19.58;;;6.10;99.90;;;;;;5133294;28;20210;-90
2022/11/13 03:51:22;;;;;;;24.98;21.77;;;6.20;99.90;;;;;;5134321;27;20219;-90
2022/11/13 03:53:50;;;;;;;23.02;20.50;;;6.10;99.90;;;;;;5137818;27;20209;-91
2022/11/13 03:56:18;;;;;;;26.95;22.13;;;6.20;99.90;;;;;;5137556;27;20209;-91
2022/11/13 03:58:46;;;;;;;29.55;23.60;;;6.20;99.90;;;;;;5137590;27;20207;-91
2022/11/13 04:01:17;;;;;;;26.80;22.73;;;6.20;99.90;;;;;;5137760;27;20211;-91
2022/11/13 04:03:45;;;;;;;29.80;23.60;;;6.30;99.90;;;;;;5137599;27;20210;-91
2022/11/13 04:06:16;;;;;;;28.23;24.35;;;6.30;99.90;;;;;;5137351;27;20257;-90
2022/11/13 04:08:44;;;;;;;26.88;23.52;;;6.30;99.90;;;;;;5137685;27;20203;-91
2022/11/13 04:11:13;;;;;;;27.10;22.23;;;6.30;99.90;;;;;;5137461;27;20231;-91
2022/11/13 04:13:41;;;;;;;24.75;20.98;;;6.30;99.90;;;;;;5137276;27;20205;-91
2022/11/13 04:16:10;;;;;;;22.42;19.10;;;6.30;99.90;;;;;;5137434;27;20207;-91
2022/11/13 04:18:38;;;;;;;26.35;23.10;;;6.30;99.90;;;;;;5137066;27;20290;-90
2022/11/13 04:21:06;;;;;;;31.70;23.20;;;6.30;99.90;;;;;;5137121;27;20210;-90
2022/11/13 04:23:36;;;;;;;33.42;21.35;;;6.30;99.90;;;;;;5136901;27;20214;-91
2022/11/13 04:26:05;;;;;;;31.80;23.48;;;6.20;99.90;;;;;;5137904;27;20202;-91
2022/11/13 04:28:34;;;;;;;24.00;21.30;;;6.30;99.90;;;;;;5140512;27;20214;-90
2022/11/13 04:31:02;;;;;;;27.80;21.15;;;6.20;99.90;;;;;;5140137;27;20205;-91
2022/11/13 04:33:30;;;;;;;31.10;22.90;;;6.20;99.90;;;;;;5137186;27;20286;-91
2022/11/13 04:35:58;;;;;;;32.17;22.85;;;6.20;99.90;;;;;;5136772;27;20199;-91
2022/11/13 04:38:27;;;;;;;26.67;23.98;;;6.30;99.90;;;;;;5136865;27;20211;-92
2022/11/13 04:43:39;;;;;;;30.55;23.92;;;6.30;99.90;;;;;;5135998;27;20213;-91
2022/11/13 04:46:08;;;;;;;33.53;24.17;;;6.30;99.90;;;;;;5136777;27;20217;-91
2022/11/13 04:48:36;;;;;;;27.55;23.05;;;6.30;99.90;;;;;;5136566;27;20207;-91
2022/11/13 04:51:04;;;;;;;32.40;25.55;;;6.30;99.90;;;;;;5136615;27;20203;-91
2022/11/13 04:53:33;;;;;;;31.50;25.90;;;6.30;99.90;;;;;;5136530;27;20218;-91
2022/11/13 04:56:03;;;;;;;28.00;23.55;;;6.30;99.90;;;;;;5136291;27;20203;-91
2022/11/13 04:58:31;;;;;;;32.05;24.23;;;6.30;99.90;;;;;;5136133;27;20207;-91
2022/11/13 05:01:00;;;;;;;34.67;25.27;;;6.30;99.90;;;;;;5136696;27;20206;-91
2022/11/13 05:03:28;;;;;;;28.48;24.50;;;6.40;99.90;;;;;;5135267;27;20230;-91
2022/11/13 05:06:03;;;;;;;27.13;24.17;;;6.30;99.90;;;;;;5136304;27;20207;-91
2022/11/13 05:08:31;;;;;;;27.90;23.67;;;6.40;99.90;;;;;;5136218;27;20206;-90
2022/11/13 05:11:00;;;;;;;31.50;25.27;;;6.40;99.90;;;;;;5135995;27;20211;-90
2022/11/13 05:13:32;;;;;;;31.17;27.05;;;6.40;99.90;;;;;;5136074;27;20237;-90
2022/11/13 05:16:02;;;;;;;38.22;28.52;;;6.50;99.90;;;;;;5136045;27;20203;-90
2022/11/13 05:18:31;;;;;;;31.67;27.42;;;6.50;99.90;;;;;;5136288;27;20205;-91
2022/11/13 05:20:59;;;;;;;36.05;27.67;;;6.60;99.90;;;;;;5136122;27;20211;-91
2022/11/13 05:23:28;;;;;;;35.80;26.52;;;6.60;99.90;;;;;;5135874;27;20234;-91
2022/11/13 05:26:01;;;;;;;41.60;29.80;;;6.60;99.90;;;;;;5135738;27;20199;-91
2022/11/13 05:28:31;;;;;;;31.77;28.40;;;6.60;99.90;;;;;;5135785;27;20203;-90
2022/11/13 05:31:04;;;;;;;39.25;29.63;;;6.60;99.90;;;;;;5135817;27;20209;-91
2022/11/13 05:33:32;;;;;;;32.00;28.50;;;6.60;99.90;;;;;;5135513;27;20226;-90
2022/11/13 05:36:02;;;;;;;37.60;29.90;;;6.70;99.90;;;;;;5135516;27;20203;-91
2022/11/13 05:38:31;;;;;;;34.50;29.17;;;6.70;99.90;;;;;;5135513;27;20207;-92
2022/11/13 05:41:03;;;;;;;49.35;29.58;;;6.70;99.90;;;;;;5135716;27;20199;-91
2022/11/13 05:43:33;;;;;;;41.35;27.48;;;6.60;99.90;;;;;;5135482;27;20254;-91
2022/11/13 05:46:02;;;;;;;36.22;28.25;;;6.60;99.90;;;;;;5135705;27;20206;-91
2022/11/13 05:48:31;;;;;;;37.35;27.75;;;6.50;99.90;;;;;;5135587;27;20195;-90
2022/11/13 05:51:03;;;;;;;40.13;30.05;;;6.60;99.90;;;;;;5135690;27;20229;-91
2022/11/13 05:53:32;;;;;;;47.40;30.48;;;6.40;99.90;;;;;;5135151;27;20227;-91
2022/11/13 05:56:01;;;;;;;29.92;26.52;;;6.40;99.90;;;;;;5135311;27;20214;-91
2022/11/13 05:58:30;;;;;;;30.70;24.63;;;6.40;99.90;;;;;;5135401;27;20203;-91
2022/11/13 06:01:11;;;;;;;32.38;24.35;;;6.40;99.90;;;;;;5135635;27;20202;-91
2022/11/13 06:03:39;;;;;;;27.70;23.38;;;6.30;99.90;;;;;;5135122;27;20195;-91
2022/11/13 06:06:10;;;;;;;34.53;22.27;;;6.20;99.90;;;;;;5134974;27;20226;-92
2022/11/13 06:08:39;;;;;;;25.20;21.83;;;6.10;99.90;;;;;;5135020;27;20202;-91
2022/11/13 06:11:09;;;;;;;27.23;21.85;;;6.00;99.90;;;;;;5135488;27;20207;-91
2022/11/13 06:13:38;;;;;;;29.83;22.17;;;5.90;99.90;;;;;;5135187;27;20222;-91
2022/11/13 06:16:08;;;;;;;26.85;22.85;;;5.80;99.90;;;;;;5134841;27;20210;-91
2022/11/13 06:18:39;;;;;;;28.73;21.23;;;5.80;99.90;;;;;;5134888;27;20203;-91
2022/11/13 06:21:09;;;;;;;23.65;21.25;;;5.80;99.90;;;;;;5135089;27;20203;-91
2022/11/13 06:23:39;;;;;;;25.60;20.85;;;5.80;99.90;;;;;;5134847;27;20210;-91
2022/11/13 06:26:08;;;;;;;27.33;20.85;;;5.80;99.90;;;;;;5134836;27;20195;-92
2022/11/13 06:28:37;;;;;;;24.55;21.08;;;5.80;99.90;;;;;;5134663;27;20203;-91
2022/11/13 06:31:07;;;;;;;32.25;21.05;;;5.80;99.90;;;;;;5134609;27;20210;-91
2022/11/13 06:33:37;;;;;;;29.80;21.92;;;5.70;99.90;;;;;;5134306;27;20222;-90
2022/11/13 06:36:07;;;;;;;27.65;21.17;;;5.60;99.90;;;;;;5137535;27;20215;-90
2022/11/13 06:38:38;;;;;;;38.42;21.92;;;5.60;99.90;;;;;;5138332;27;20203;-91
2022/11/13 06:41:08;;;;;;;34.67;22.48;;;5.50;99.90;;;;;;5136346;27;20207;-91
2022/11/13 06:43:36;;;;;;;26.50;21.30;;;5.50;99.90;;;;;;5134602;27;20294;-90
2022/11/13 06:46:06;;;;;;;27.00;22.42;;;5.50;99.90;;;;;;5134126;27;20217;-91
2022/11/13 06:48:34;;;;;;;33.13;23.30;;;5.40;99.90;;;;;;5134146;27;20199;-90
2022/11/13 06:51:06;;;;;;;23.58;20.65;;;5.50;99.90;;;;;;5134723;27;20217;-90
2022/11/13 06:53:34;;;;;;;36.92;23.77;;;5.40;99.90;;;;;;5134197;27;20231;-90
2022/11/13 06:56:05;;;;;;;28.98;23.55;;;5.40;99.90;;;;;;5134235;27;20210;-90
2022/11/13 06:58:34;;;;;;;27.70;22.10;;;5.50;99.90;;;;;;5133923;27;20475;-91
2022/11/13 07:01:06;;;;;;;25.27;22.55;;;5.50;99.90;;;;;;5134390;27;20208;-91
2022/11/13 07:03:34;;;;;;;32.22;23.48;;;5.50;99.90;;;;;;5134262;27;20199;-92
2022/11/13 07:06:06;;;;;;;30.45;22.83;;;5.60;99.90;;;;;;5139219;27;20205;-90
2022/11/13 07:08:34;;;;;;;30.48;24.58;;;5.60;99.90;;;;;;5134096;27;20206;-91
2022/11/13 07:11:03;;;;;;;25.60;22.65;;;5.60;99.90;;;;;;5133962;27;20233;-91
2022/11/13 07:13:31;;;;;;;30.05;23.17;;;5.60;99.90;;;;;;5133923;27;20314;-91
2022/11/13 07:16:03;;;;;;;29.05;24.67;;;5.60;99.90;;;;;;5134332;27;20199;-92
2022/11/13 07:18:44;;;;;;;26.88;23.88;;;5.70;99.90;;;;;;5133909;27;20293;-92
2022/11/13 07:21:14;;;;;;;27.92;24.85;;;5.70;99.90;;;;;;5133900;27;20206;-91
2022/11/13 07:23:42;;;;;;;32.83;24.58;;;5.80;99.90;;;;;;5134123;27;20207;-91
2022/11/13 07:26:11;;;;;;;29.35;24.73;;;5.80;99.90;;;;;;5133042;27;20275;-91
2022/11/13 07:28:39;;;;;;;29.08;23.83;;;5.80;99.90;;;;;;5138387;27;20209;-92
2022/11/13 07:31:10;;;;;;;31.67;25.52;;;5.80;99.90;;;;;;5133953;27;20199;-90
2022/11/13 07:33:38;;;;;;;28.23;24.67;;;5.80;99.90;;;;;;5133783;28;20226;-91
2022/11/13 07:36:08;;;;;;;33.45;24.80;;;5.80;99.90;;;;;;5133499;28;20205;-91
2022/11/13 07:38:38;;;;;;;33.03;25.40;;;5.80;99.90;;;;;;5133606;28;20195;-90
2022/11/13 07:41:06;;;;;;;27.45;23.83;;;5.80;99.90;;;;;;5133752;28;20198;-91
2022/11/13 07:43:35;;;;;;;29.15;24.05;;;5.80;99.90;;;;;;5133654;28;20198;-91
2022/11/13 07:46:03;;;;;;;31.15;26.42;;;5.80;99.90;;;;;;5133250;28;20202;-92
2022/11/13 07:48:31;;;;;;;30.60;25.60;;;5.80;99.90;;;;;;5133378;28;20207;-92
2022/11/13 07:51:01;;;;;;;32.67;24.90;;;5.80;99.90;;;;;;5133951;28;20199;-92
2022/11/13 07:53:29;;;;;;;31.20;25.80;;;5.90;99.90;;;;;;5133295;28;20251;-92
2022/11/13 07:56:02;;;;;;;31.25;25.92;;;5.90;99.90;;;;;;5133640;28;20198;-92
2022/11/13 07:58:30;;;;;;;36.92;26.80;;;5.90;99.90;;;;;;5133128;28;20198;-92
2022/11/13 08:01:03;;;;;;;28.38;25.05;;;5.90;99.90;;;;;;5133012;28;20203;-91
2022/11/13 08:03:32;;;;;;;27.65;24.70;;;6.00;99.90;;;;;;5133555;28;20219;-92
2022/11/13 08:06:01;;;;;;;26.60;23.60;;;6.10;99.90;;;;;;5133122;28;20205;-92
2022/11/13 08:08:30;;;;;;;32.42;25.83;;;6.10;99.90;;;;;;5133223;28;20210;-92
2022/11/13 08:10:59;;;;;;;28.00;25.00;;;6.20;99.90;;;;;;5133776;28;20207;-92
2022/11/13 08:13:28;;;;;;;27.00;23.90;;;6.10;99.90;;;;;;5133263;28;20231;-94
2022/11/13 08:16:00;;;;;;;31.58;25.08;;;6.20;99.90;;;;;;5133048;28;20203;-92
2022/11/13 08:18:29;;;;;;;25.35;22.83;;;6.20;99.90;;;;;;5133077;28;20210;-93
2022/11/13 08:21:00;;;;;;;27.58;24.63;;;6.30;99.90;;;;;;5133423;28;20203;-93
2022/11/13 08:23:29;;;;;;;26.35;22.67;;;6.30;99.90;;;;;;5133027;28;20223;-92
2022/11/13 08:25:57;;;;;;;31.25;26.23;;;6.30;99.90;;;;;;5133211;28;20230;-92
2022/11/13 08:28:25;;;;;;;37.65;25.15;;;6.40;99.90;;;;;;5133120;28;20230;-92
2022/11/13 08:30:56;;;;;;;28.02;24.83;;;6.40;99.90;;;;;;5133412;28;20214;-92
2022/11/13 08:33:24;;;;;;;28.20;24.35;;;6.40;99.90;;;;;;5133538;28;20249;-92
2022/11/13 08:35:53;;;;;;;28.25;24.67;;;6.50;99.90;;;;;;5133410;28;20206;-93
2022/11/13 08:38:22;;;;;;;32.40;23.23;;;6.40;99.90;;;;;;5135304;27;20206;-92
2022/11/13 08:40:51;;;;;;;27.75;23.30;;;6.50;99.90;;;;;;5136845;27;20202;-92
2022/11/13 08:43:19;;;;;;;26.42;23.63;;;6.40;99.90;;;;;;5136837;27;20219;-92
2022/11/13 08:45:47;;;;;;;29.60;24.25;;;6.50;99.90;;;;;;5141516;27;20199;-92
2022/11/13 08:48:17;;;;;;;27.02;24.17;;;6.50;99.90;;;;;;5140904;27;20203;-93
2022/11/13 08:50:46;;;;;;;39.42;24.73;;;6.50;99.90;;;;;;5139210;27;20360;-92
2022/11/13 08:53:14;;;;;;;28.58;23.35;;;6.50;99.90;;;;;;5136487;27;20237;-92
2022/11/13 08:55:42;;;;;;;30.10;24.23;;;6.60;99.90;;;;;;5136554;27;20206;-92
2022/11/13 08:58:10;;;;;;;27.25;23.15;;;6.60;99.90;;;;;;5136362;27;20207;-92
2022/11/13 09:00:39;;;;;;;30.10;25.15;;;6.70;99.90;;;;;;5136151;27;20210;-92
2022/11/13 09:03:10;;;;;;;28.02;24.45;;;6.80;99.90;;;;;;5136691;27;20286;-92
2022/11/13 09:05:40;;;;;;;32.33;25.77;;;6.80;99.90;;;;;;5136393;27;20201;-92
2022/11/13 09:08:09;;;;;;;31.40;25.42;;;6.90;99.90;;;;;;5136403;27;20211;-92
2022/11/13 09:10:37;;;;;;;31.25;24.98;;;6.90;99.90;;;;;;5136444;27;20210;-92
2022/11/13 09:13:08;;;;;;;31.60;24.35;;;7.00;99.90;;;;;;5136194;27;20251;-91
2022/11/13 09:15:38;;;;;;;30.67;25.80;;;7.10;99.90;;;;;;5136324;27;20231;-93
2022/11/13 09:18:06;;;;;;;33.13;25.55;;;7.20;99.90;;;;;;5136356;27;20203;-92
2022/11/13 09:20:35;;;;;;;34.55;27.58;;;7.20;99.90;;;;;;5136019;27;20209;-93
2022/11/13 09:23:08;;;;;;;39.25;26.48;;;7.30;99.90;;;;;;5136077;27;20219;-92
2022/11/13 09:25:37;;;;;;;26.63;23.88;;;7.40;99.90;;;;;;5135676;27;20191;-91
2022/11/13 09:28:06;;;;;;;31.00;24.98;;;7.50;99.90;;;;;;5136216;27;20201;-91
2022/11/13 09:30:34;;;;;;;27.48;24.23;;;7.50;99.90;;;;;;5135820;27;20210;-92
2022/11/13 09:33:03;;;;;;;31.35;24.45;;;7.70;99.90;;;;;;5135548;27;20218;-91
2022/11/13 09:35:35;;;;;;;28.20;23.90;;;7.70;99.90;;;;;;5135288;27;20215;-91
2022/11/13 09:38:07;;;;;;;24.63;22.13;;;7.80;99.90;;;;;;5135866;27;20203;-91
2022/11/13 09:40:43;;;;;;;25.40;22.67;;;7.70;99.90;;;;;;5135776;27;20202;-92
2022/11/13 09:43:23;;;;;;;25.92;22.00;;;7.80;99.90;;;;;;5135636;27;20278;-92
2022/11/13 09:45:54;;;;;;;29.30;22.02;;;7.90;99.90;;;;;;5135375;27;20201;-92
2022/11/13 09:48:30;;;;;;;26.65;23.40;;;8.00;99.90;;;;;;5135298;27;20206;-92
2022/11/13 09:51:01;;;;;;;29.38;23.23;;;8.10;99.90;;;;;;5135185;27;20207;-92
2022/11/13 09:53:36;;;;;;;24.88;22.20;;;8.10;99.90;;;;;;5135483;27;20237;-92
2022/11/13 09:56:16;;;;;;;25.17;22.50;;;8.10;99.90;;;;;;5135485;27;20198;-91
2022/11/13 09:58:49;;;;;;;29.75;23.17;;;8.10;99.90;;;;;;5135250;27;20203;-92
2022/11/13 10:01:24;;;;;;;31.23;22.75;;;8.20;99.90;;;;;;5135209;27;20210;-92
2022/11/13 10:03:58;;;;;;;27.88;22.00;;;8.30;99.90;;;;;;5135153;27;20252;-92
2022/11/13 10:06:40;;;;;;;25.10;21.95;;;8.40;99.90;;;;;;5135497;27;20255;-92
2022/11/13 10:09:19;;;;;;;25.02;22.35;;;8.50;99.90;;;;;;5135028;27;20289;-92
2022/11/13 10:11:53;;;;;;;26.77;20.90;;;8.50;99.90;;;;;;5135155;27;20239;-92
2022/11/13 10:14:28;;;;;;;27.73;22.30;;;8.70;99.90;;;;;;5134885;27;20239;-91
2022/11/13 10:17:02;;;;;;;29.10;22.15;;;8.80;99.90;;;;;;5134629;27;20209;-92
2022/11/13 10:19:36;;;;;;;23.98;21.40;;;8.80;99.90;;;;;;5135234;27;20245;-92
2022/11/13 10:22:14;;;;;;;24.02;21.42;;;8.80;99.90;;;;;;5135157;27;20309;-92
2022/11/13 10:25:12;;;;;;;23.77;21.27;;;8.90;99.90;;;;;;5134057;27;20195;-92
2022/11/13 10:27:40;;;;;;;26.45;21.60;;;8.90;99.90;;;;;;5134715;27;20206;-92
2022/11/13 10:30:14;;;;;;;23.73;20.45;;;8.80;99.90;;;;;;5134917;27;20213;-92
2022/11/13 10:32:44;;;;;;;24.65;21.45;;;8.80;99.90;;;;;;5135008;27;20223;-92
2022/11/13 10:35:40;;;;;;;22.63;19.33;;;9.00;99.90;;;;;;5134525;27;20218;-92
2022/11/13 10:38:16;;;;;;;26.00;22.30;;;9.20;99.90;;;;;;5134700;27;20206;-91
2022/11/13 10:40:45;;;;;;;22.95;20.55;;;9.20;99.90;;;;;;5134482;27;20198;-91
2022/11/13 10:43:17;;;;;;;23.27;19.80;;;9.40;99.90;;;;;;5134497;27;20227;-92
2022/11/13 10:45:55;;;;;;;26.10;21.17;;;9.50;99.90;;;;;;5134611;27;20199;-92
2022/11/13 10:48:27;;;;;;;22.75;20.00;;;9.60;99.90;;;;;;5134565;27;20209;-91
2022/11/13 10:50:58;;;;;;;24.67;19.80;;;9.80;99.90;;;;;;5134593;27;20298;-93
2022/11/13 10:53:33;;;;;;;21.50;19.23;;;10.00;99.90;;;;;;5135806;27;20226;-92
2022/11/13 10:56:14;;;;;;;22.13;19.92;;;10.00;99.90;;;;;;5136266;27;20222;-91
2022/11/13 10:58:42;;;;;;;20.83;18.75;;;10.20;99.90;;;;;;5136993;27;20203;-92
2022/11/13 11:01:15;;;;;;;20.70;18.08;;;10.30;99.90;;;;;;5133078;27;20202;-92
2022/11/13 11:03:49;;;;;;;22.58;19.88;;;10.50;99.90;;;;;;5134178;27;20206;-92
2022/11/13 11:06:18;;;;;;;19.00;17.13;;;10.70;99.90;;;;;;5133792;27;20232;-92
2022/11/13 11:08:46;;;;;;;18.25;16.45;;;10.90;99.90;;;;;;5133573;27;20203;-92
2022/11/13 11:14:19;;;;;;;26.95;17.95;;;11.50;99.90;;;;;;5134118;27;20203;-92
2022/11/13 11:16:51;;;;;;;21.65;17.95;;;11.80;99.90;;;;;;5133788;27;20210;-93
2022/11/13 11:19:25;;;;;;;16.13;14.48;;;12.10;99.90;;;;;;5134018;27;20202;-92
2022/11/13 11:22:01;;;;;;;17.83;14.73;;;12.70;99.90;;;;;;5133688;27;20223;-92
2022/11/13 11:24:35;;;;;;;14.57;13.27;;;13.10;99.90;;;;;;5134093;27;20218;-92
2022/11/13 11:27:12;;;;;;;16.67;13.88;;;13.20;99.90;;;;;;5133568;27;20199;-92
2022/11/13 11:29:49;;;;;;;14.77;13.13;;;13.50;99.90;;;;;;5133759;27;20198;-92
2022/11/13 11:32:22;;;;;;;15.90;13.18;;;13.70;99.90;;;;;;5134072;27;20219;-93
2022/11/13 11:34:55;;;;;;;13.15;11.77;;;14.20;99.90;;;;;;5133873;27;20219;-92
2022/11/13 11:37:35;;;;;;;24.60;12.05;;;14.30;99.90;;;;;;5133821;27;20210;-92
2022/11/13 11:40:08;;;;;;;11.55;10.32;;;14.80;99.90;;;;;;5137328;28;20199;-92
2022/11/13 11:42:45;;;;;;;16.33;10.90;;;15.00;99.90;;;;;;5134133;28;20221;-93
2022/11/13 11:45:17;;;;;;;13.73;11.68;;;15.00;99.90;;;;;;5133607;28;20199;-93
2022/11/13 11:47:45;;;;;;;10.63;9.40;;;15.10;99.90;;;;;;5133725;28;20213;-93
2022/11/13 11:50:23;;;;;;;11.75;9.93;;;15.50;99.90;;;;;;5133628;28;20207;-93
2022/11/13 11:53:00;;;;;;;11.43;10.43;;;15.80;99.90;;;;;;5133650;28;20262;-93
2022/11/13 11:55:42;;;;;;;14.48;10.18;;;16.00;99.90;;;;;;5133827;28;20240;-93
2022/11/13 11:58:26;;;;;;;12.07;10.77;;;16.30;99.90;;;;;;5133639;28;20213;-93
2022/11/13 12:01:04;;;;;;;10.27;9.38;;;16.40;99.90;;;;;;5133763;28;20290;-93
2022/11/13 12:03:59;;;;;;;11.20;9.98;;;16.50;99.90;;;;;;5134130;28;20219;-94
2022/11/13 12:06:39;;;;;;;13.57;11.05;;;16.70;99.90;;;;;;5134294;28;20195;-95
2022/11/13 12:09:15;;;;;;;10.63;9.60;;;16.80;99.90;;;;;;5133593;28;20278;-93
2022/11/13 12:11:51;;;;;;;13.30;11.82;;;16.90;99.90;;;;;;5133541;27;20230;-94
2022/11/13 12:14:33;;;;;;;13.13;10.75;;;17.00;99.90;;;;;;5137705;27;20216;-91
2022/11/13 12:17:18;;;;;;;13.30;10.60;;;17.20;99.90;;;;;;5137467;27;20219;-92
2022/11/13 12:19:58;;;;;;;11.07;9.98;;;17.40;99.90;;;;;;5138117;27;20213;-92
2022/11/13 12:22:35;;;;;;;12.02;10.85;;;17.40;99.90;;;;;;5137157;27;20299;-92
2022/11/13 12:25:19;;;;;;;17.08;10.32;;;17.50;99.90;;;;;;5136868;27;20213;-93
2022/11/13 12:27:55;;;;;;;10.75;9.75;;;17.60;99.90;;;;;;5137274;27;20212;-92
2022/11/13 12:30:32;;;;;;;10.80;9.80;;;17.80;99.90;;;;;;5137385;27;20289;-92
2022/11/13 12:33:11;;;;;;;11.40;10.27;;;17.80;99.90;;;;;;5137245;27;20219;-91
2022/11/13 12:35:41;;;;;;;11.15;10.10;;;18.10;99.90;;;;;;5137350;27;20215;-93
2022/11/13 12:38:19;;;;;;;11.07;10.07;;;18.30;99.90;;;;;;5136769;27;20245;-91
2022/11/13 12:40:57;;;;;;;11.40;10.30;;;18.50;99.90;;;;;;5137044;27;20213;-93
2022/11/13 12:43:53;;;;;;;10.27;9.00;;;18.70;99.90;;;;;;5136966;27;20229;-92
2022/11/13 12:46:34;;;;;;;10.73;9.70;;;18.80;99.90;;;;;;5136838;27;20199;-92
2022/11/13 12:49:16;;;;;;;11.82;10.63;;;18.90;99.90;;;;;;5136718;27;20214;-92
2022/11/13 12:51:55;;;;;;;13.18;11.60;;;18.60;99.90;;;;;;5136771;27;20223;-91
2022/11/13 12:54:28;;;;;;;11.63;10.50;;;18.70;99.90;;;;;;5136945;27;20203;-91
2022/11/13 12:57:08;;;;;;;12.27;10.35;;;18.80;99.90;;;;;;5136409;27;20215;-90
2022/11/13 12:59:39;;;;;;;11.35;10.30;;;18.60;99.90;;;;;;5136737;27;20203;-91
2022/11/13 13:02:31;;;;;;;11.20;10.15;;;18.40;99.90;;;;;;5137235;27;20233;-91
2022/11/13 13:05:25;;;;;;;11.25;10.23;;;18.50;99.90;;;;;;5140936;27;20311;-92